Etusivu
METAR-TAF:

METAR-TAF

Lentoasemat :

Roscommon County - Blodgett Memorial Airport

Houghton Lake, Michigan, Yhdysvallat

Leveyspiiri: 44-21-04N, Pituuspiiri: 084-40-27W, korkeus merenpinnasta: 350 m

Tämänhetkinen sää

Tämä raportti tehtiin 7 minuuttia sitten, kello 10.53 UTC
Tuuli 4 kn koillisesta
Lämpötila 13°C
Kosteus 88%
Ilmanpaine 1006 hPa
Näkyvyys: 16.1 km
Pilvistä 7500 ft:n korkeudessa

METAR: KHTL 201053Z AUTO 05004KT 10SM OVC075 13/11 A2971 RMK AO2 RAB33E44 SLP058 P0000 T01280111

Aika: 07:00 (11:00 UTC)


TAF: puuttuu

Säähavainnot ja -ennusteet yli 4000 lentoasemalta (METAR- ja TAF-raportit).

Käytössä olevat sääasemat on merkitty karttaan keltaisilla ja punaisilla pisteillä.

Aseta hiiri pisteen päälle nähdäksesi sääaseman nimen.

Klikkaa sitten nähdäksesi säähavainnot ja -ennusteet.

Kartan vaihtaminen: klikkaa mustalla rastilla varustettuja vihreitä pisteitä, niin voit zoomata sisään; viivalla varustettua vihreää pistettä, niin voit zoomata ulos tai vihreitä nuolia, niin pääset viereisille kartoille.


METAR-TAF: